Latest Weather Observations for Mount Boyce

IDN60801

Issued at 2:03 pm EDT Sunday 28 November 2021 (issued every 10 minutes, with the page automatically refreshed every 10 minutes)

About weather observations | Map of weather stations | Latest weather observations for NSW | Other Formats
Station Details ID: 063292 Name: MOUNT BOYCE AWS Lat: -33.62 Lon: 150.27 Height: 1080.0 m
Data from the previous 72 hours. | See also: Recent months at Mount Boyce
Date/Time
EDT
Temp
°C
App
Temp
°C
Dew
Point
°C
Rel
Hum
%
Delta-T
°C
Wind Press
QNH
hPa
Press
MSL
hPa
Rain since
9am
mm
Dir  Spd
km/h
Gust
km/h
Spd
kts
Gust
kts
28/02:00pm 10.3 8.7 8.9 91 0.7 E 7 13 4 7 - - 0.0
28/01:30pm 10.9 9.4 9.2 89 0.9 E 7 13 4 7 - - 0.0
28/01:00pm 12.3 10.8 10.4 88 1.0 E 9 15 5 8 - - 0.0
28/12:30pm 9.9 7.8 8.3 90 0.8 ESE 9 17 5 9 - - 0.0
28/12:00pm 10.1 8.3 9.5 96 0.3 E 9 19 5 10 - - 0.0
28/11:30am 9.6 8.2 9.5 99 0.1 E 7 13 4 7 - - 0.0
28/11:23am 9.6 7.8 9.5 99 0.1 ESE 9 19 5 10 - - 0.0
28/11:00am 9.7 8.3 9.6 99 0.1 E 7 17 4 9 - - 0.0
28/10:30am 8.8 7.4 8.7 99 0.1 SE 6 15 3 8 - - 0.0
28/10:00am 8.3 6.7 8.2 99 0.1 ESE 6 15 3 8 - - 0.0
28/09:30am 8.1 5.9 8.0 99 0.1 ESE 9 17 5 9 - - 0.0
28/09:00am 7.8 5.6 7.7 99 0.1 ESE 9 20 5 11 - - 4.8
28/08:30am 7.6 4.6 7.5 99 0.0 ESE 13 22 7 12 - - 4.8
28/08:00am 7.6 5.3 7.5 99 0.0 SE 9 20 5 11 - - 4.8
28/07:30am 7.6 4.6 7.5 99 0.0 SSE 13 28 7 15 - - 4.8
28/07:00am 7.0 5.0 6.9 99 0.0 SE 7 22 4 12 - - 4.8
28/06:30am 6.8 3.9 6.7 99 0.0 SE 11 24 6 13 - - 4.8
28/06:28am 6.7 3.8 6.6 99 0.0 SE 11 24 6 13 - - 4.8
28/06:00am 6.5 4.0 6.4 99 0.0 SSE 9 17 5 9 - - 4.8
28/05:48am 6.5 4.0 6.4 99 0.0 SSE 9 20 5 11 - - 4.8
28/05:30am 6.5 4.0 6.4 99 0.0 SE 9 17 5 9 - - 4.8
28/05:00am 6.5 3.6 6.4 99 0.0 SE 11 19 6 10 - - 4.4
28/04:30am 6.5 3.6 6.4 99 0.0 SE 11 19 6 10 - - 4.4
28/04:00am 6.6 3.7 6.5 99 0.0 SE 11 22 6 12 - - 4.4
28/03:30am 6.5 3.2 6.4 99 0.0 SE 13 26 7 14 - - 4.4
28/03:00am 6.6 3.3 6.5 99 0.0 SE 13 22 7 12 - - 4.4
28/02:30am 7.1 5.3 7.0 99 0.0 SSE 6 11 3 6 - - 4.2
28/02:00am 6.9 4.5 6.8 99 0.0 SSE 9 20 5 11 - - 4.2
28/01:52am 6.9 4.5 6.8 99 0.0 SSE 9 17 5 9 - - 4.2
28/01:30am 6.9 3.7 6.8 99 0.0 SE 13 28 7 15 - - 4.2
28/01:29am 6.8 3.6 6.7 99 0.0 SE 13 28 7 15 - - 4.2
28/01:09am 6.9 3.7 6.8 99 0.0 SE 13 22 7 12 - - 4.2
28/01:07am 6.8 3.6 6.7 99 0.0 SE 13 22 7 12 - - 4.2
28/01:00am 6.8 3.6 6.7 99 0.0 SE 13 22 7 12 - - 4.2
28/12:30am 7.0 3.8 6.9 99 0.0 SE 13 32 7 17 - - 4.2
28/12:00am 7.1 3.9 7.0 99 0.0 SE 13 30 7 16 - - 4.0
 
Date/Time
EDT
Temp
°C
App
Temp
°C
Dew
Point
°C
Rel
Hum
%
Delta-T
°C
Wind Press
QNH
hPa
Press
MSL
hPa
Rain since
9am
mm
Dir  Spd
km/h
Gust
km/h
Spd
kts
Gust
kts
27/11:30pm 7.1 3.9 7.0 99 0.0 SE 13 24 7 13 - - 4.0
27/11:00pm 7.2 4.4 7.1 99 0.0 SE 11 22 6 12 - - 4.0
27/10:30pm 7.2 4.1 7.1 99 0.0 SE 13 24 7 13 - - 3.6
27/10:00pm 7.2 4.4 7.1 99 0.0 SE 11 20 6 11 - - 3.6
27/09:30pm 7.1 3.9 7.0 99 0.0 SE 13 28 7 15 - - 3.6
27/09:28pm 7.1 3.9 7.0 99 0.0 SE 13 30 7 16 - - 3.6
27/09:00pm 7.1 3.9 7.0 99 0.0 ESE 13 28 7 15 - - 3.6
27/08:30pm 7.2 4.1 7.1 99 0.0 ESE 13 28 7 15 - - 3.6
27/08:00pm 7.2 3.7 7.1 99 0.0 ESE 15 32 8 17 - - 3.4
27/07:30pm 7.5 4.8 7.4 99 0.0 SE 11 22 6 12 - - 3.4
27/07:00pm 8.0 5.0 7.9 99 0.1 SE 13 28 7 15 - - 3.2
27/06:30pm 8.4 5.2 8.3 99 0.1 ESE 15 30 8 16 - - 2.6
27/06:00pm 8.6 5.8 8.5 99 0.1 ESE 13 22 7 12 - - 2.4
27/05:30pm 8.5 5.7 8.4 99 0.1 ESE 13 24 7 13 - - 2.2
27/05:00pm 8.8 6.4 8.7 99 0.1 ESE 11 24 6 13 - - 2.2
27/04:30pm 9.0 6.2 8.7 98 0.2 ESE 13 26 7 14 - - 1.8
27/04:00pm 9.5 6.5 9.2 98 0.2 ESE 15 28 8 15 - - 1.8
27/03:30pm 9.6 6.5 9.0 96 0.3 SE 15 26 8 14 - - 1.8
27/03:05pm 10.0 7.5 9.7 98 0.2 SE 13 24 7 13 - - 1.8
27/03:03pm 10.1 7.6 9.8 98 0.2 SE 13 22 7 12 - - 1.8
27/03:00pm 10.0 7.6 9.9 99 0.1 SE 13 24 7 13 - - 1.8
27/02:30pm 9.4 6.4 9.3 99 0.1 SSE 15 30 8 16 - - 1.8
27/02:00pm 9.5 6.9 9.4 99 0.1 SE 13 28 7 15 - - 1.6
27/01:30pm 9.4 6.4 9.3 99 0.1 SE 15 30 8 16 - - 1.6
27/01:00pm 9.2 6.2 9.1 99 0.1 SE 15 30 8 16 - - 1.6
27/12:30pm 9.5 7.3 9.4 99 0.1 SE 11 26 6 14 - - 1.4
27/12:00pm 9.6 7.0 9.5 99 0.1 SE 13 26 7 14 - - 1.2
27/11:30am 9.2 6.2 9.1 99 0.1 SE 15 30 8 16 - - 0.8
27/11:00am 9.0 6.3 8.9 99 0.1 SE 13 26 7 14 - - 0.8
27/10:30am 9.0 5.2 8.9 99 0.1 ESE 19 41 10 22 - - 0.6
27/10:00am 9.3 6.7 9.2 99 0.1 ESE 13 28 7 15 - - 0.6
27/09:30am 8.9 5.8 8.8 99 0.1 ESE 15 30 8 16 - - 0.4
27/09:00am 8.5 4.9 8.4 99 0.1 SE 17 30 9 16 - - 20.4
27/08:30am 8.5 5.7 8.4 99 0.1 ESE 13 28 7 15 - - 20.4
27/08:05am 8.4 5.5 8.3 99 0.1 ESE 13 26 7 14 - - 20.2
27/08:00am 8.3 5.0 8.2 99 0.1 ESE 15 28 8 15 - - 20.2
27/07:30am 8.2 5.3 8.1 99 0.1 SE 13 22 7 12 - - 19.8
27/07:00am 8.1 5.6 8.0 99 0.1 SSE 11 20 6 11 - - 17.4
27/06:30am 8.0 5.0 7.9 99 0.1 SE 13 24 7 13 - - 16.4
27/06:00am 7.8 4.4 7.7 99 0.1 SE 15 28 8 15 - - 16.0
27/05:30am 7.8 4.8 7.7 99 0.1 SE 13 32 7 17 - - 15.6
27/05:26am 7.8 4.4 7.7 99 0.1 SE 15 37 8 20 - - 15.6
27/05:16am 7.7 3.9 7.6 99 0.1 SE 17 33 9 18 - - 15.4
27/05:00am 7.6 3.8 7.5 99 0.0 SE 17 37 9 20 - - 15.4
27/04:30am 7.7 4.3 7.6 99 0.1 SE 15 30 8 16 - - 14.0
27/04:00am 7.9 4.9 7.8 99 0.1 SE 13 30 7 16 - - 13.4
27/03:49am 7.9 4.5 7.8 99 0.1 SE 15 28 8 15 - - 13.2
27/03:43am 7.9 4.2 7.8 99 0.1 SE 17 32 9 17 - - 13.2
27/03:30am 8.1 4.8 8.0 99 0.1 ESE 15 37 8 20 - - 13.2
27/03:00am 8.2 4.9 8.1 99 0.1 ESE 15 28 8 15 - - 12.6
27/02:32am 8.1 4.8 8.0 99 0.1 ESE 15 32 8 17 - - 12.6
27/02:30am 8.0 4.7 7.9 99 0.1 ESE 15 32 8 17 - - 12.6
27/02:28am 8.1 5.2 8.0 99 0.1 E 13 26 7 14 - - 12.6
27/02:12am 8.0 5.0 7.9 99 0.1 ESE 13 30 7 16 - - 12.6
27/02:00am 8.0 4.3 7.9 99 0.1 ESE 17 33 9 18 - - 12.6
27/01:56am 8.1 4.4 8.0 99 0.1 ESE 17 32 9 17 - - 12.6
27/01:30am 8.2 4.5 8.1 99 0.1 SE 17 28 9 15 - - 12.4
27/01:26am 8.2 4.5 8.1 99 0.1 SE 17 32 9 17 - - 12.4
27/01:14am 8.2 4.9 8.1 99 0.1 SE 15 30 8 16 - - 12.4
27/01:00am 8.3 5.0 8.2 99 0.1 SE 15 28 8 15 - - 12.4
27/12:30am 8.4 5.2 8.3 99 0.1 SE 15 32 8 17 - - 12.0
27/12:00am 8.5 4.9 8.4 99 0.1 SE 17 41 9 22 - - 11.8
 
Date/Time
EDT
Temp
°C
App
Temp
°C
Dew
Point
°C
Rel
Hum
%
Delta-T
°C
Wind Press
QNH
hPa
Press
MSL
hPa
Rain since
9am
mm
Dir  Spd
km/h
Gust
km/h
Spd
kts
Gust
kts
26/11:30pm 8.7 4.8 8.6 99 0.1 SE 19 37 10 20 - - 11.4
26/11:00pm 8.8 5.3 8.7 99 0.1 ESE 17 37 9 20 - - 11.2
26/10:30pm 9.3 6.3 9.2 99 0.1 ESE 15 26 8 14 - - 11.0
26/10:00pm 9.4 6.0 9.3 99 0.1 ESE 17 35 9 19 - - 10.6
26/09:30pm 9.5 5.8 9.4 99 0.1 SE 19 35 10 19 - - 10.4
26/09:00pm 9.6 5.9 9.5 99 0.1 ESE 19 32 10 17 - - 10.4
26/08:30pm 9.7 5.8 9.6 99 0.1 SE 20 41 11 22 - - 10.0
26/08:00pm 9.9 6.7 9.8 99 0.1 SE 17 35 9 19 - - 9.8
26/07:30pm 10.1 6.5 10.0 99 0.1 SE 19 39 10 21 - - 9.8
26/07:00pm 10.3 7.1 10.1 99 0.1 ESE 17 35 9 19 - - 9.6
26/06:52pm 10.3 6.8 10.1 99 0.1 ESE 19 37 10 20 - - 9.6
26/06:43pm 10.5 7.0 10.3 99 0.1 ESE 19 39 10 21 - - 9.6
26/06:30pm 10.7 8.0 10.5 99 0.1 ESE 15 28 8 15 - - 9.6
26/06:00pm 10.8 8.2 10.6 99 0.1 SE 15 32 8 17 - - 9.4
26/05:30pm 11.0 8.8 10.8 99 0.1 SE 13 22 7 12 - - 9.0
26/05:01pm 11.2 8.7 11.0 99 0.1 ESE 15 24 8 13 - - 8.8
26/05:00pm 11.2 8.7 11.0 99 0.1 ESE 15 24 8 13 - - 8.8
26/04:30pm 11.4 8.0 11.2 99 0.1 ESE 20 41 11 22 - - 8.8
26/04:12pm 11.9 8.3 11.7 99 0.1 ESE 22 52 12 28 - - 8.8
26/04:00pm 12.1 8.9 11.9 99 0.1 E 20 39 11 21 - - 8.8
26/03:30pm 11.9 8.8 11.7 99 0.1 E 19 32 10 17 - - 8.2
26/03:00pm 12.0 10.5 11.8 99 0.1 ESE 11 30 6 16 - - 7.6
26/02:30pm 11.9 10.0 11.7 99 0.1 SE 13 20 7 11 - - 7.0
26/02:00pm 11.7 8.6 11.5 99 0.1 ESE 19 32 10 17 - - 6.4
26/01:30pm 11.9 9.2 11.7 99 0.1 SE 17 28 9 15 - - 6.2
26/01:00pm 12.5 10.4 12.3 99 0.1 SE 15 39 8 21 - - 6.0
26/12:30pm 12.6 11.6 12.4 99 0.1 SE 9 20 5 11 - - 6.0
26/12:00pm 11.8 9.5 11.6 99 0.1 ESE 15 28 8 15 - - 6.0
26/11:30am 12.3 10.1 12.1 99 0.1 SE 15 35 8 19 - - 6.0
26/11:02am 13.0 11.8 12.8 99 0.1 S 11 17 6 9 - - 6.0
26/11:00am 12.7 11.4 12.5 99 0.1 S 11 19 6 10 - - 6.0
26/10:53am 12.4 10.6 12.2 99 0.1 SSE 13 20 7 11 - - 6.0
26/10:30am 12.3 10.9 12.1 99 0.1 SE 11 26 6 14 - - 5.8
26/10:19am 12.2 11.1 12.0 99 0.1 SE 9 19 5 10 - - 5.0
26/10:16am 12.2 11.1 12.0 99 0.1 SE 9 19 5 10 - - 4.6
26/10:00am 12.3 12.6 12.1 99 0.1 SE 2 9 1 5 - - 4.4
26/09:30am 12.1 11.0 11.9 99 0.1 SE 9 17 5 9 - - 2.8
26/09:00am 12.6 11.3 12.4 99 0.1 ESE 11 24 6 13 - - 39.2
26/08:30am 12.7 11.4 12.5 99 0.1 E 11 19 6 10 - - 38.8
26/08:00am 12.9 11.7 12.7 99 0.1 E 11 20 6 11 - - 38.8
26/07:30am 13.3 12.6 13.1 99 0.1 E 9 19 5 10 - - 38.8
26/07:00am 13.5 12.8 13.3 99 0.1 E 9 15 5 8 - - 38.6
26/06:30am 13.8 13.8 13.6 99 0.1 ENE 6 13 3 7 - - 38.6
26/06:20am 13.7 14.4 13.5 99 0.1 S 2 9 1 5 - - 38.2
26/06:01am 13.7 13.5 13.5 99 0.1 ESE 7 13 4 7 - - 35.8
26/06:00am 13.7 13.1 13.5 99 0.1 ESE 9 15 5 8 - - 35.4
26/05:30am 14.4 14.0 14.2 99 0.1 E 9 17 5 9 - - 32.4
26/05:00am 15.1 15.6 14.9 99 0.1 ENE 6 15 3 8 - - 29.4
26/04:30am 15.6 16.2 15.4 99 0.1 ENE 6 17 3 9 - - 26.8
26/04:27am 15.6 16.0 15.4 99 0.1 ENE 7 17 4 9 - - 26.6
26/04:14am 15.8 15.9 15.6 99 0.1 ENE 9 15 5 8 - - 25.6
26/04:00am 15.8 16.5 15.6 99 0.1 ENE 6 17 3 9 - - 20.4
26/03:30am 15.5 15.9 15.3 99 0.1 ENE 7 13 4 7 - - 14.8
26/03:00am 15.3 15.8 15.1 99 0.1 ENE 6 11 3 6 - - 14.4
26/02:30am 15.0 15.2 14.8 99 0.1 ENE 7 11 4 6 - - 14.4
26/02:00am 15.2 16.8 15.0 99 0.1 CALM 0 0 0 0 - - 14.4
26/01:50am 15.1 16.3 14.9 99 0.1 SW 2 9 1 5 - - 14.4
26/01:43am 15.1 15.6 14.9 99 0.1 SSW 6 9 3 5 - - 14.4
26/01:30am 15.1 16.7 14.8 98 0.2 CALM 0 0 0 0 - - 14.4
26/01:00am 15.3 15.5 14.8 97 0.3 NNE 7 9 4 5 - - 14.4
26/12:30am 16.0 15.8 14.7 92 0.8 N 9 13 5 7 - - 14.4
26/12:00am 15.4 15.8 15.2 99 0.1 WNW 7 11 4 6 - - 14.4
 
Date/Time
EDT
Temp
°C
App
Temp
°C
Dew
Point
°C
Rel
Hum
%
Delta-T
°C
Wind Press
QNH
hPa
Press
MSL
hPa
Rain since
9am
mm
Dir  Spd
km/h
Gust
km/h
Spd
kts
Gust
kts
25/11:41pm 15.5 15.5 15.3 99 0.1 NW 9 13 5 7 - - 14.4
25/11:39pm 15.3 15.3 15.1 99 0.1 NNW 9 13 5 7 - - 14.4
25/11:30pm 15.5 15.9 15.3 99 0.1 NNW 7 9 4 5 - - 14.4
25/11:00pm 15.5 15.5 15.3 99 0.1 W 9 13 5 7 - - 14.4
25/10:51pm 15.4 15.4 15.2 99 0.1 WNW 9 11 5 6 - - 14.4
25/10:50pm 15.4 15.4 15.2 99 0.1 WNW 9 11 5 6 - - 14.4
25/10:49pm 15.4 15.4 15.2 99 0.1 WNW 9 11 5 6 - - 14.4
25/10:30pm 15.3 15.8 15.1 99 0.1 WNW 6 9 3 5 - - 14.4
25/10:08pm 15.4 15.4 15.2 99 0.1 W 9 13 5 7 - - 14.4
25/10:00pm 15.3 15.3 15.1 99 0.1 W 9 13 5 7 - - 14.4
25/09:58pm 15.3 15.6 15.1 99 0.1 W 7 11 4 6 - - 14.4
25/09:30pm 15.5 15.9 15.3 99 0.1 SW 7 9 4 5 - - 14.4
25/09:26pm 15.6 16.0 15.4 99 0.1 WSW 7 9 4 5 - - 14.4
25/09:24pm 15.5 15.9 15.3 99 0.1 W 7 9 4 5 - - 14.4
25/09:00pm 15.6 17.0 15.4 99 0.1 ESE 2 7 1 4 - - 14.4
25/08:53pm 15.6 17.4 15.4 99 0.1 CALM 0 7 0 4 - - 14.4
25/08:47pm 15.6 16.6 15.4 99 0.1 ENE 4 7 2 4 - - 14.4
25/08:30pm 15.8 17.2 15.5 98 0.2 N 2 7 1 4 - - 14.4
25/08:00pm 16.0 16.2 15.8 99 0.1 WNW 9 15 5 8 - - 14.4
25/07:53pm 16.1 16.9 15.9 99 0.1 NW 6 11 3 6 - - 14.4
25/07:30pm 16.3 17.6 16.1 99 0.1 N 4 9 2 5 - - 14.4
25/07:25pm 16.3 17.2 16.1 99 0.1 NNE 6 9 3 5 - - 14.4
25/07:00pm 16.6 17.6 16.3 98 0.2 NW 6 13 3 7 - - 14.4
25/06:35pm 16.6 18.8 16.4 99 0.1 CALM 0 0 0 0 - - 14.4
25/06:30pm 16.5 18.6 16.3 99 0.1 CALM 0 6 0 3 - - 14.4
25/06:20pm 16.4 18.1 16.2 99 0.1 SE 2 7 1 4 - - 14.4
25/06:00pm 16.0 15.8 15.8 99 0.1 SSW 11 19 6 10 - - 12.2
25/05:30pm 16.5 18.6 16.3 99 0.1 CALM 0 0 0 0 - - 9.0
25/05:00pm 16.6 17.4 16.4 99 0.1 ENE 7 11 4 6 - - 8.8
25/04:59pm 16.6 17.4 16.4 99 0.1 ENE 7 11 4 6 - - 8.8
25/04:58pm 16.6 17.4 16.3 98 0.2 ENE 7 11 4 6 - - 8.6
25/04:46pm 16.6 18.6 16.1 97 0.3 CALM 0 6 0 3 - - 8.0
25/04:38pm 16.6 18.2 16.0 96 0.4 ENE 2 9 1 5 - - 7.2
25/04:30pm 16.6 17.3 16.0 96 0.4 NE 7 11 4 6 - - 5.2
25/04:28pm 16.6 17.2 15.8 95 0.5 NNE 7 11 4 6 - - 4.2
25/04:24pm 16.9 17.7 16.3 96 0.4 NE 7 11 4 6 - - 2.8
25/04:23pm 17.0 18.0 16.4 96 0.4 NE 6 11 3 6 - - 2.8
25/04:03pm 17.1 18.8 16.3 95 0.5 N 2 7 1 4 - - 2.8
25/04:00pm 17.0 18.6 16.0 94 0.6 N 2 7 1 4 - - 2.8
25/03:46pm 17.1 18.1 15.4 90 1.0 N 4 9 2 5 - - 2.8
25/03:42pm 17.3 18.5 15.8 91 0.9 N 4 9 2 5 - - 2.8
25/03:30pm 17.6 18.9 16.1 91 0.9 N 4 11 2 6 - - 2.8
25/03:08pm 18.0 19.4 16.5 91 0.9 NW 4 9 2 5 - - 2.2
25/03:00pm 18.6 20.0 17.3 92 0.8 N 6 13 3 7 - - 2.2
25/02:48pm 18.0 20.2 17.4 96 0.4 NW 2 9 1 5 - - 2.2
25/02:30pm 17.8 19.9 17.3 97 0.3 W 2 7 1 4 - - 2.0
25/02:12pm 17.7 19.2 16.7 94 0.6 NW 4 11 2 6 - - 1.8
25/02:09pm 17.6 18.7 16.5 93 0.7 NW 6 11 3 6 - - 1.4

Other formats

Comma delimited format used in spreadsheet applications
http://www.bom.gov.au/fwo/IDN60801/IDN60801.94743.axf

JavaScript Object Notation format (JSON) in row-major order
http://www.bom.gov.au/fwo/IDN60801/IDN60801.94743.json

Data quality

Most of these data are generated automatically and are frequently updated. Quality checks on data are not normally performed. It is possible for incorrect values to appear. Refer to information at About Latest Weather Observations and please check the disclaimer before using these data.